Terminal Aerodrome Forecast
Issued by NWS

Current Version | Previous Version | Text Only | Print | Product List | Glossary Off
Versions: 1 2 3 4 5 6 7 8 9 10 11 12 13 14

000
FTUS44 KOHX 210600 RRA
TAFCKV
TAF
KCKV 210626Z 2106/2206 04003KT P6SM BKN070
     FM211400 08005KT P6SM BKN070
     FM220000 12005KT P6SM BKN080=

USA.gov is the U.S. government's official web portal to all federal, state and local government web resources and services.